sensor_id;sensor_type;location;lat;lon;timestamp;P1;durP1;ratioP1;P2;durP2;ratioP2
72205;SDS011;60111;48.286;7.812;2022-07-15T00:01:20;6.03;;;3.00;;
72205;SDS011;60111;48.286;7.812;2022-07-15T00:03:52;5.80;;;2.77;;
72205;SDS011;60111;48.286;7.812;2022-07-15T00:06:25;5.05;;;2.80;;
72205;SDS011;60111;48.286;7.812;2022-07-15T00:08:58;8.40;;;3.15;;
72205;SDS011;60111;48.286;7.812;2022-07-15T00:11:30;5.03;;;2.90;;
72205;SDS011;60111;48.286;7.812;2022-07-15T00:14:03;5.22;;;2.90;;
72205;SDS011;60111;48.286;7.812;2022-07-15T00:16:35;5.05;;;2.60;;
72205;SDS011;60111;48.286;7.812;2022-07-15T00:19:08;5.92;;;2.60;;
72205;SDS011;60111;48.286;7.812;2022-07-15T00:21:41;6.00;;;2.75;;
72205;SDS011;60111;48.286;7.812;2022-07-15T00:24:13;4.07;;;2.50;;
72205;SDS011;60111;48.286;7.812;2022-07-15T00:26:46;5.37;;;2.77;;
72205;SDS011;60111;48.286;7.812;2022-07-15T00:29:19;6.90;;;3.25;;
72205;SDS011;60111;48.286;7.812;2022-07-15T00:31:52;6.08;;;3.15;;
72205;SDS011;60111;48.286;7.812;2022-07-15T00:36:57;8.70;;;3.02;;
72205;SDS011;60111;48.286;7.812;2022-07-15T00:39:30;5.83;;;2.92;;
72205;SDS011;60111;48.286;7.812;2022-07-15T00:42:03;6.22;;;2.95;;
72205;SDS011;60111;48.286;7.812;2022-07-15T00:44:36;5.22;;;2.90;;
72205;SDS011;60111;48.286;7.812;2022-07-15T00:47:09;4.95;;;3.05;;
72205;SDS011;60111;48.286;7.812;2022-07-15T00:49:41;4.75;;;3.02;;
72205;SDS011;60111;48.286;7.812;2022-07-15T00:52:14;5.08;;;2.98;;
72205;SDS011;60111;48.286;7.812;2022-07-15T00:54:49;7.87;;;3.03;;
72205;SDS011;60111;48.286;7.812;2022-07-15T00:57:24;4.70;;;3.05;;
72205;SDS011;60111;48.286;7.812;2022-07-15T00:59:59;5.30;;;2.75;;
72205;SDS011;60111;48.286;7.812;2022-07-15T01:02:34;3.52;;;2.60;;
72205;SDS011;60111;48.286;7.812;2022-07-15T01:05:09;7.00;;;3.00;;
72205;SDS011;60111;48.286;7.812;2022-07-15T01:07:42;4.55;;;3.12;;
72205;SDS011;60111;48.286;7.812;2022-07-15T01:10:16;4.80;;;2.72;;
72205;SDS011;60111;48.286;7.812;2022-07-15T01:12:49;5.30;;;2.77;;
72205;SDS011;60111;48.286;7.812;2022-07-15T01:15:22;6.85;;;3.00;;
72205;SDS011;60111;48.286;7.812;2022-07-15T01:17:56;5.00;;;3.20;;
72205;SDS011;60111;48.286;7.812;2022-07-15T01:20:29;3.87;;;3.00;;
72205;SDS011;60111;48.286;7.812;2022-07-15T01:23:02;5.65;;;2.90;;
72205;SDS011;60111;48.286;7.812;2022-07-15T01:25:35;5.55;;;2.65;;
72205;SDS011;60111;48.286;7.812;2022-07-15T01:28:08;4.53;;;2.70;;
72205;SDS011;60111;48.286;7.812;2022-07-15T01:30:41;5.67;;;2.70;;
72205;SDS011;60111;48.286;7.812;2022-07-15T01:33:13;3.58;;;2.50;;
72205;SDS011;60111;48.286;7.812;2022-07-15T01:35:46;4.62;;;2.85;;
72205;SDS011;60111;48.286;7.812;2022-07-15T01:38:19;4.97;;;3.05;;
72205;SDS011;60111;48.286;7.812;2022-07-15T01:40:52;4.95;;;2.80;;
72205;SDS011;60111;48.286;7.812;2022-07-15T01:43:24;6.30;;;3.08;;
72205;SDS011;60111;48.286;7.812;2022-07-15T01:45:57;9.23;;;3.40;;
72205;SDS011;60111;48.286;7.812;2022-07-15T01:48:30;9.13;;;3.20;;
72205;SDS011;60111;48.286;7.812;2022-07-15T01:51:20;7.80;;;3.30;;
72205;SDS011;60111;48.286;7.812;2022-07-15T01:53:53;7.13;;;2.97;;
72205;SDS011;60111;48.286;7.812;2022-07-15T01:56:25;4.62;;;3.20;;
72205;SDS011;60111;48.286;7.812;2022-07-15T01:58:58;5.70;;;3.22;;
72205;SDS011;60111;48.286;7.812;2022-07-15T02:01:31;4.90;;;3.10;;
72205;SDS011;60111;48.286;7.812;2022-07-15T02:04:03;7.67;;;3.20;;
72205;SDS011;60111;48.286;7.812;2022-07-15T02:06:36;8.55;;;3.15;;
72205;SDS011;60111;48.286;7.812;2022-07-15T02:09:09;6.37;;;3.15;;
72205;SDS011;60111;48.286;7.812;2022-07-15T02:11:42;7.17;;;3.40;;
72205;SDS011;60111;48.286;7.812;2022-07-15T02:14:14;5.33;;;3.40;;
72205;SDS011;60111;48.286;7.812;2022-07-15T02:16:47;5.37;;;3.37;;
72205;SDS011;60111;48.286;7.812;2022-07-15T02:19:20;11.30;;;3.40;;
72205;SDS011;60111;48.286;7.812;2022-07-15T02:21:53;5.42;;;3.15;;
72205;SDS011;60111;48.286;7.812;2022-07-15T02:24:26;4.13;;;3.20;;
72205;SDS011;60111;48.286;7.812;2022-07-15T02:26:58;4.95;;;3.40;;
72205;SDS011;60111;48.286;7.812;2022-07-15T02:29:31;8.10;;;3.50;;
72205;SDS011;60111;48.286;7.812;2022-07-15T02:32:03;6.85;;;3.42;;
72205;SDS011;60111;48.286;7.812;2022-07-15T02:34:36;7.40;;;3.10;;
72205;SDS011;60111;48.286;7.812;2022-07-15T02:37:09;4.37;;;2.90;;
72205;SDS011;60111;48.286;7.812;2022-07-15T02:39:41;5.42;;;3.17;;
72205;SDS011;60111;48.286;7.812;2022-07-15T02:42:14;5.40;;;3.20;;
72205;SDS011;60111;48.286;7.812;2022-07-15T02:44:47;4.78;;;2.90;;
72205;SDS011;60111;48.286;7.812;2022-07-15T02:47:19;5.37;;;3.15;;
72205;SDS011;60111;48.286;7.812;2022-07-15T02:49:52;6.20;;;3.15;;
72205;SDS011;60111;48.286;7.812;2022-07-15T02:52:25;7.73;;;3.53;;
72205;SDS011;60111;48.286;7.812;2022-07-15T02:54:57;5.50;;;3.12;;
72205;SDS011;60111;48.286;7.812;2022-07-15T02:57:30;5.70;;;2.93;;
72205;SDS011;60111;48.286;7.812;2022-07-15T03:00:07;6.78;;;2.92;;
72205;SDS011;60111;48.286;7.812;2022-07-15T03:02:42;9.80;;;3.73;;
72205;SDS011;60111;48.286;7.812;2022-07-15T03:05:15;6.75;;;3.60;;
72205;SDS011;60111;48.286;7.812;2022-07-15T03:07:48;6.27;;;3.33;;
72205;SDS011;60111;48.286;7.812;2022-07-15T03:10:22;8.03;;;3.52;;
72205;SDS011;60111;48.286;7.812;2022-07-15T03:12:54;8.58;;;3.70;;
72205;SDS011;60111;48.286;7.812;2022-07-15T03:15:27;7.17;;;3.75;;
72205;SDS011;60111;48.286;7.812;2022-07-15T03:18:00;6.70;;;3.40;;
72205;SDS011;60111;48.286;7.812;2022-07-15T03:20:33;7.62;;;3.62;;
72205;SDS011;60111;48.286;7.812;2022-07-15T03:23:06;5.83;;;3.50;;
72205;SDS011;60111;48.286;7.812;2022-07-15T03:25:39;5.37;;;3.30;;
72205;SDS011;60111;48.286;7.812;2022-07-15T03:28:12;5.33;;;3.50;;
72205;SDS011;60111;48.286;7.812;2022-07-15T03:30:44;7.62;;;3.65;;
72205;SDS011;60111;48.286;7.812;2022-07-15T03:33:17;7.67;;;3.75;;
72205;SDS011;60111;48.286;7.812;2022-07-15T03:35:50;8.03;;;4.30;;
72205;SDS011;60111;48.286;7.812;2022-07-15T03:38:22;5.45;;;3.62;;
72205;SDS011;60111;48.286;7.812;2022-07-15T03:40:55;5.65;;;3.55;;
72205;SDS011;60111;48.286;7.812;2022-07-15T03:43:27;6.65;;;3.87;;
72205;SDS011;60111;48.286;7.812;2022-07-15T03:46:01;6.57;;;3.73;;
72205;SDS011;60111;48.286;7.812;2022-07-15T03:48:33;5.15;;;3.65;;
72205;SDS011;60111;48.286;7.812;2022-07-15T03:51:06;6.28;;;4.00;;
72205;SDS011;60111;48.286;7.812;2022-07-15T03:53:38;10.08;;;3.70;;
72205;SDS011;60111;48.286;7.812;2022-07-15T03:56:11;7.47;;;3.52;;
72205;SDS011;60111;48.286;7.812;2022-07-15T03:58:44;6.17;;;3.50;;
72205;SDS011;60111;48.286;7.812;2022-07-15T04:01:17;6.12;;;3.85;;
72205;SDS011;60111;48.286;7.812;2022-07-15T04:03:50;8.88;;;3.95;;
72205;SDS011;60111;48.286;7.812;2022-07-15T04:06:23;5.58;;;3.37;;
72205;SDS011;60111;48.286;7.812;2022-07-15T04:08:56;12.53;;;4.40;;
72205;SDS011;60111;48.286;7.812;2022-07-15T04:11:28;5.67;;;3.58;;
72205;SDS011;60111;48.286;7.812;2022-07-15T04:14:01;5.97;;;3.33;;
72205;SDS011;60111;48.286;7.812;2022-07-15T04:19:07;5.00;;;3.70;;
72205;SDS011;60111;48.286;7.812;2022-07-15T04:21:40;7.45;;;4.00;;
72205;SDS011;60111;48.286;7.812;2022-07-15T04:24:12;8.38;;;3.77;;
72205;SDS011;60111;48.286;7.812;2022-07-15T04:26:45;8.30;;;3.73;;
72205;SDS011;60111;48.286;7.812;2022-07-15T04:29:17;6.08;;;3.80;;
72205;SDS011;60111;48.286;7.812;2022-07-15T04:31:50;6.22;;;3.65;;
72205;SDS011;60111;48.286;7.812;2022-07-15T04:34:23;7.75;;;3.52;;
72205;SDS011;60111;48.286;7.812;2022-07-15T04:36:55;9.88;;;3.75;;
72205;SDS011;60111;48.286;7.812;2022-07-15T04:39:28;9.68;;;3.80;;
72205;SDS011;60111;48.286;7.812;2022-07-15T04:42:00;10.90;;;3.98;;
72205;SDS011;60111;48.286;7.812;2022-07-15T04:44:33;9.48;;;4.00;;
72205;SDS011;60111;48.286;7.812;2022-07-15T04:47:06;10.95;;;3.92;;
72205;SDS011;60111;48.286;7.812;2022-07-15T04:49:38;6.67;;;3.67;;
72205;SDS011;60111;48.286;7.812;2022-07-15T04:52:29;8.83;;;3.77;;
72205;SDS011;60111;48.286;7.812;2022-07-15T04:55:01;5.08;;;3.90;;
72205;SDS011;60111;48.286;7.812;2022-07-15T04:57:34;6.72;;;4.12;;
72205;SDS011;60111;48.286;7.812;2022-07-15T05:00:07;7.17;;;3.45;;
72205;SDS011;60111;48.286;7.812;2022-07-15T05:02:40;6.30;;;3.57;;
72205;SDS011;60111;48.286;7.812;2022-07-15T05:05:13;7.05;;;4.25;;
72205;SDS011;60111;48.286;7.812;2022-07-15T05:07:46;9.23;;;4.35;;
72205;SDS011;60111;48.286;7.812;2022-07-15T05:10:18;7.83;;;3.90;;
72205;SDS011;60111;48.286;7.812;2022-07-15T05:12:52;7.62;;;3.98;;
72205;SDS011;60111;48.286;7.812;2022-07-15T05:15:24;7.80;;;4.03;;
72205;SDS011;60111;48.286;7.812;2022-07-15T05:17:57;4.33;;;3.45;;
72205;SDS011;60111;48.286;7.812;2022-07-15T05:20:30;7.97;;;4.17;;
72205;SDS011;60111;48.286;7.812;2022-07-15T05:23:02;8.37;;;3.93;;
72205;SDS011;60111;48.286;7.812;2022-07-15T05:25:35;10.32;;;3.85;;
72205;SDS011;60111;48.286;7.812;2022-07-15T05:28:07;6.28;;;3.50;;
72205;SDS011;60111;48.286;7.812;2022-07-15T05:30:40;11.88;;;4.58;;
72205;SDS011;60111;48.286;7.812;2022-07-15T05:33:15;11.57;;;4.15;;
72205;SDS011;60111;48.286;7.812;2022-07-15T05:35:47;11.03;;;4.60;;
72205;SDS011;60111;48.286;7.812;2022-07-15T05:38:20;8.10;;;3.80;;
72205;SDS011;60111;48.286;7.812;2022-07-15T05:40:52;6.12;;;3.33;;
72205;SDS011;60111;48.286;7.812;2022-07-15T05:43:25;7.03;;;3.87;;
72205;SDS011;60111;48.286;7.812;2022-07-15T05:45:58;5.20;;;3.37;;
72205;SDS011;60111;48.286;7.812;2022-07-15T05:48:30;6.87;;;3.35;;
72205;SDS011;60111;48.286;7.812;2022-07-15T05:51:04;8.28;;;4.05;;
72205;SDS011;60111;48.286;7.812;2022-07-15T05:53:37;11.18;;;3.67;;
72205;SDS011;60111;48.286;7.812;2022-07-15T05:56:10;6.65;;;3.80;;
72205;SDS011;60111;48.286;7.812;2022-07-15T05:58:42;11.57;;;3.90;;
72205;SDS011;60111;48.286;7.812;2022-07-15T06:01:15;8.20;;;3.72;;
72205;SDS011;60111;48.286;7.812;2022-07-15T06:03:47;7.95;;;3.80;;
72205;SDS011;60111;48.286;7.812;2022-07-15T06:06:20;14.83;;;4.23;;
72205;SDS011;60111;48.286;7.812;2022-07-15T06:08:53;11.63;;;3.98;;
72205;SDS011;60111;48.286;7.812;2022-07-15T06:11:26;14.75;;;4.28;;
72205;SDS011;60111;48.286;7.812;2022-07-15T06:13:58;9.13;;;3.93;;
72205;SDS011;60111;48.286;7.812;2022-07-15T06:16:31;7.50;;;3.65;;
72205;SDS011;60111;48.286;7.812;2022-07-15T06:19:03;7.50;;;3.90;;
72205;SDS011;60111;48.286;7.812;2022-07-15T06:24:10;16.15;;;4.40;;
72205;SDS011;60111;48.286;7.812;2022-07-15T06:26:42;9.53;;;4.13;;
72205;SDS011;60111;48.286;7.812;2022-07-15T06:29:15;12.88;;;4.10;;
72205;SDS011;60111;48.286;7.812;2022-07-15T06:31:47;9.90;;;3.50;;
72205;SDS011;60111;48.286;7.812;2022-07-15T06:34:20;8.90;;;3.35;;
72205;SDS011;60111;48.286;7.812;2022-07-15T06:36:53;10.40;;;3.72;;
72205;SDS011;60111;48.286;7.812;2022-07-15T06:39:25;9.23;;;3.50;;
72205;SDS011;60111;48.286;7.812;2022-07-15T06:41:58;9.25;;;3.27;;
72205;SDS011;60111;48.286;7.812;2022-07-15T06:44:31;7.60;;;3.50;;
72205;SDS011;60111;48.286;7.812;2022-07-15T06:47:04;6.97;;;3.12;;
72205;SDS011;60111;48.286;7.812;2022-07-15T06:49:37;10.70;;;3.60;;
72205;SDS011;60111;48.286;7.812;2022-07-15T06:52:10;17.00;;;3.58;;
72205;SDS011;60111;48.286;7.812;2022-07-15T06:54:42;10.53;;;3.53;;
72205;SDS011;60111;48.286;7.812;2022-07-15T06:57:15;6.50;;;3.60;;
72205;SDS011;60111;48.286;7.812;2022-07-15T06:59:48;9.48;;;3.67;;
72205;SDS011;60111;48.286;7.812;2022-07-15T07:02:20;8.65;;;4.45;;
72205;SDS011;60111;48.286;7.812;2022-07-15T07:04:53;11.68;;;3.65;;
72205;SDS011;60111;48.286;7.812;2022-07-15T07:07:25;19.10;;;4.15;;
72205;SDS011;60111;48.286;7.812;2022-07-15T07:09:58;9.20;;;3.83;;
72205;SDS011;60111;48.286;7.812;2022-07-15T07:12:31;9.98;;;3.70;;
72205;SDS011;60111;48.286;7.812;2022-07-15T07:15:04;8.68;;;3.52;;
72205;SDS011;60111;48.286;7.812;2022-07-15T07:20:10;13.38;;;3.55;;
72205;SDS011;60111;48.286;7.812;2022-07-15T07:22:43;9.33;;;3.47;;
72205;SDS011;60111;48.286;7.812;2022-07-15T07:25:15;11.80;;;3.17;;
72205;SDS011;60111;48.286;7.812;2022-07-15T07:27:48;6.30;;;3.25;;
72205;SDS011;60111;48.286;7.812;2022-07-15T07:30:21;11.22;;;3.70;;
72205;SDS011;60111;48.286;7.812;2022-07-15T07:32:53;6.30;;;3.17;;
72205;SDS011;60111;48.286;7.812;2022-07-15T07:35:26;6.15;;;3.08;;
72205;SDS011;60111;48.286;7.812;2022-07-15T07:37:59;9.33;;;3.27;;
72205;SDS011;60111;48.286;7.812;2022-07-15T07:40:31;10.10;;;3.58;;
72205;SDS011;60111;48.286;7.812;2022-07-15T07:43:04;10.08;;;3.30;;
72205;SDS011;60111;48.286;7.812;2022-07-15T07:45:36;6.05;;;3.20;;
72205;SDS011;60111;48.286;7.812;2022-07-15T07:48:09;11.73;;;3.62;;
72205;SDS011;60111;48.286;7.812;2022-07-15T07:50:42;5.72;;;3.05;;
72205;SDS011;60111;48.286;7.812;2022-07-15T07:53:16;7.03;;;3.30;;
72205;SDS011;60111;48.286;7.812;2022-07-15T07:55:49;11.75;;;3.55;;
72205;SDS011;60111;48.286;7.812;2022-07-15T07:58:22;8.95;;;3.17;;
72205;SDS011;60111;48.286;7.812;2022-07-15T08:00:55;7.07;;;2.93;;
72205;SDS011;60111;48.286;7.812;2022-07-15T08:03:27;10.87;;;2.90;;
72205;SDS011;60111;48.286;7.812;2022-07-15T08:06:00;7.00;;;2.83;;
72205;SDS011;60111;48.286;7.812;2022-07-15T08:08:33;7.35;;;3.02;;
72205;SDS011;60111;48.286;7.812;2022-07-15T08:11:07;6.85;;;2.65;;
72205;SDS011;60111;48.286;7.812;2022-07-15T08:13:40;7.08;;;2.60;;
72205;SDS011;60111;48.286;7.812;2022-07-15T08:16:13;5.73;;;2.80;;
72205;SDS011;60111;48.286;7.812;2022-07-15T08:18:45;7.08;;;3.20;;
72205;SDS011;60111;48.286;7.812;2022-07-15T08:21:18;10.95;;;3.08;;
72205;SDS011;60111;48.286;7.812;2022-07-15T08:23:50;7.15;;;2.83;;
72205;SDS011;60111;48.286;7.812;2022-07-15T08:26:25;12.90;;;3.05;;
72205;SDS011;60111;48.286;7.812;2022-07-15T08:28:57;8.75;;;3.10;;
72205;SDS011;60111;48.286;7.812;2022-07-15T08:31:33;7.25;;;2.70;;
72205;SDS011;60111;48.286;7.812;2022-07-15T08:34:07;5.40;;;2.58;;
72205;SDS011;60111;48.286;7.812;2022-07-15T08:36:40;13.70;;;3.00;;
72205;SDS011;60111;48.286;7.812;2022-07-15T08:39:12;8.98;;;2.83;;
72205;SDS011;60111;48.286;7.812;2022-07-15T08:41:46;4.97;;;2.50;;
72205;SDS011;60111;48.286;7.812;2022-07-15T08:44:19;10.72;;;2.80;;
72205;SDS011;60111;48.286;7.812;2022-07-15T08:46:53;6.28;;;2.52;;
72205;SDS011;60111;48.286;7.812;2022-07-15T08:49:31;8.90;;;2.70;;
72205;SDS011;60111;48.286;7.812;2022-07-15T08:52:05;7.10;;;2.80;;
72205;SDS011;60111;48.286;7.812;2022-07-15T08:54:38;7.77;;;2.83;;
72205;SDS011;60111;48.286;7.812;2022-07-15T08:57:11;8.03;;;2.70;;
72205;SDS011;60111;48.286;7.812;2022-07-15T08:59:45;5.77;;;2.73;;
72205;SDS011;60111;48.286;7.812;2022-07-15T09:02:24;8.88;;;2.65;;
72205;SDS011;60111;48.286;7.812;2022-07-15T09:07:55;6.62;;;2.58;;
72205;SDS011;60111;48.286;7.812;2022-07-15T09:10:44;5.97;;;2.47;;
72205;SDS011;60111;48.286;7.812;2022-07-15T09:13:28;6.87;;;2.80;;
72205;SDS011;60111;48.286;7.812;2022-07-15T09:16:10;8.38;;;2.90;;
72205;SDS011;60111;48.286;7.812;2022-07-15T09:18:49;4.70;;;2.62;;
72205;SDS011;60111;48.286;7.812;2022-07-15T09:21:24;10.50;;;2.90;;
72205;SDS011;60111;48.286;7.812;2022-07-15T09:23:58;6.33;;;2.33;;
72205;SDS011;60111;48.286;7.812;2022-07-15T09:26:34;5.58;;;2.10;;
72205;SDS011;60111;48.286;7.812;2022-07-15T09:29:07;7.40;;;2.30;;
72205;SDS011;60111;48.286;7.812;2022-07-15T09:31:58;7.03;;;2.25;;
72205;SDS011;60111;48.286;7.812;2022-07-15T09:34:59;8.28;;;2.20;;
72205;SDS011;60111;48.286;7.812;2022-07-15T09:37:33;5.20;;;2.30;;
72205;SDS011;60111;48.286;7.812;2022-07-15T09:40:06;11.12;;;2.72;;
72205;SDS011;60111;48.286;7.812;2022-07-15T09:42:46;5.97;;;2.25;;
72205;SDS011;60111;48.286;7.812;2022-07-15T09:45:21;6.58;;;2.30;;
72205;SDS011;60111;48.286;7.812;2022-07-15T09:48:16;10.20;;;2.12;;
72205;SDS011;60111;48.286;7.812;2022-07-15T09:50:38;8.77;;;2.50;;
72205;SDS011;60111;48.286;7.812;2022-07-15T09:53:13;5.78;;;2.37;;
72205;SDS011;60111;48.286;7.812;2022-07-15T09:55:47;8.03;;;2.22;;
72205;SDS011;60111;48.286;7.812;2022-07-15T09:58:21;3.87;;;1.97;;
72205;SDS011;60111;48.286;7.812;2022-07-15T10:00:54;5.15;;;2.20;;
72205;SDS011;60111;48.286;7.812;2022-07-15T10:03:27;7.25;;;2.05;;
72205;SDS011;60111;48.286;7.812;2022-07-15T10:05:59;7.47;;;2.30;;
72205;SDS011;60111;48.286;7.812;2022-07-15T10:11:07;8.83;;;2.33;;
72205;SDS011;60111;48.286;7.812;2022-07-15T10:19:37;5.17;;;2.30;;
72205;SDS011;60111;48.286;7.812;2022-07-15T10:28:20;6.03;;;2.35;;
72205;SDS011;60111;48.286;7.812;2022-07-15T10:31:39;5.47;;;2.10;;
72205;SDS011;60111;48.286;7.812;2022-07-15T10:36:52;5.53;;;2.15;;
72205;SDS011;60111;48.286;7.812;2022-07-15T10:39:21;6.22;;;2.37;;
72205;SDS011;60111;48.286;7.812;2022-07-15T10:42:00;14.55;;;2.85;;
72205;SDS011;60111;48.286;7.812;2022-07-15T10:44:36;7.50;;;2.53;;
72205;SDS011;60111;48.286;7.812;2022-07-15T10:49:50;4.33;;;1.95;;
72205;SDS011;60111;48.286;7.812;2022-07-15T11:00:32;4.15;;;2.42;;
72205;SDS011;60111;48.286;7.812;2022-07-15T11:03:14;4.23;;;2.30;;
72205;SDS011;60111;48.286;7.812;2022-07-15T11:06:00;2.75;;;2.05;;
72205;SDS011;60111;48.286;7.812;2022-07-15T11:13:50;6.03;;;2.58;;
72205;SDS011;60111;48.286;7.812;2022-07-15T11:16:23;3.65;;;2.15;;
72205;SDS011;60111;48.286;7.812;2022-07-15T11:18:56;6.70;;;2.27;;
72205;SDS011;60111;48.286;7.812;2022-07-15T11:21:29;3.87;;;2.45;;
72205;SDS011;60111;48.286;7.812;2022-07-15T11:24:02;7.50;;;2.35;;
72205;SDS011;60111;48.286;7.812;2022-07-15T11:26:45;5.20;;;2.40;;
72205;SDS011;60111;48.286;7.812;2022-07-15T11:29:19;6.72;;;2.08;;
72205;SDS011;60111;48.286;7.812;2022-07-15T11:31:51;5.55;;;2.50;;
72205;SDS011;60111;48.286;7.812;2022-07-15T11:34:24;5.90;;;2.30;;
72205;SDS011;60111;48.286;7.812;2022-07-15T11:36:59;5.92;;;2.33;;
72205;SDS011;60111;48.286;7.812;2022-07-15T11:39:32;4.67;;;2.60;;
72205;SDS011;60111;48.286;7.812;2022-07-15T11:42:05;6.33;;;2.45;;
72205;SDS011;60111;48.286;7.812;2022-07-15T11:44:57;4.10;;;2.20;;
72205;SDS011;60111;48.286;7.812;2022-07-15T11:47:29;5.50;;;2.23;;
72205;SDS011;60111;48.286;7.812;2022-07-15T11:50:04;6.67;;;2.17;;
72205;SDS011;60111;48.286;7.812;2022-07-15T11:52:36;7.83;;;2.52;;
72205;SDS011;60111;48.286;7.812;2022-07-15T11:55:09;6.43;;;2.27;;
72205;SDS011;60111;48.286;7.812;2022-07-15T11:57:45;11.55;;;2.50;;
72205;SDS011;60111;48.286;7.812;2022-07-15T12:00:27;4.40;;;2.40;;
72205;SDS011;60111;48.286;7.812;2022-07-15T12:03:06;7.97;;;2.62;;
72205;SDS011;60111;48.286;7.812;2022-07-15T12:05:40;6.58;;;2.40;;
72205;SDS011;60111;48.286;7.812;2022-07-15T12:08:13;7.25;;;1.98;;
72205;SDS011;60111;48.286;7.812;2022-07-15T12:10:46;7.53;;;2.40;;
72205;SDS011;60111;48.286;7.812;2022-07-15T12:13:19;4.25;;;2.40;;
72205;SDS011;60111;48.286;7.812;2022-07-15T12:15:52;7.37;;;2.30;;
72205;SDS011;60111;48.286;7.812;2022-07-15T12:18:24;4.27;;;2.10;;
72205;SDS011;60111;48.286;7.812;2022-07-15T12:20:57;6.05;;;2.30;;
72205;SDS011;60111;48.286;7.812;2022-07-15T12:23:30;6.75;;;2.42;;
72205;SDS011;60111;48.286;7.812;2022-07-15T12:26:09;3.20;;;1.93;;
72205;SDS011;60111;48.286;7.812;2022-07-15T12:28:42;6.25;;;2.20;;
72205;SDS011;60111;48.286;7.812;2022-07-15T12:31:23;6.37;;;2.42;;
72205;SDS011;60111;48.286;7.812;2022-07-15T12:33:52;5.75;;;2.50;;
72205;SDS011;60111;48.286;7.812;2022-07-15T12:36:25;7.60;;;2.52;;
72205;SDS011;60111;48.286;7.812;2022-07-15T12:39:10;2.75;;;2.25;;
72205;SDS011;60111;48.286;7.812;2022-07-15T12:41:56;7.77;;;2.10;;
72205;SDS011;60111;48.286;7.812;2022-07-15T12:44:21;5.60;;;2.60;;
72205;SDS011;60111;48.286;7.812;2022-07-15T12:47:00;3.30;;;2.30;;
72205;SDS011;60111;48.286;7.812;2022-07-15T12:52:19;3.65;;;2.20;;
72205;SDS011;60111;48.286;7.812;2022-07-15T12:54:54;3.52;;;2.00;;
72205;SDS011;60111;48.286;7.812;2022-07-15T12:57:33;8.25;;;2.52;;
72205;SDS011;60111;48.286;7.812;2022-07-15T13:00:19;3.87;;;2.12;;
72205;SDS011;60111;48.286;7.812;2022-07-15T13:03:23;4.15;;;2.35;;
72205;SDS011;60111;48.286;7.812;2022-07-15T13:05:30;3.70;;;2.20;;
72205;SDS011;60111;48.286;7.812;2022-07-15T13:10:49;6.00;;;2.43;;
72205;SDS011;60111;48.286;7.812;2022-07-15T13:13:25;3.37;;;2.52;;
72205;SDS011;60111;48.286;7.812;2022-07-15T13:16:00;6.67;;;2.40;;
72205;SDS011;60111;48.286;7.812;2022-07-15T13:18:33;4.40;;;2.60;;
72205;SDS011;60111;48.286;7.812;2022-07-15T13:21:07;7.65;;;2.42;;
72205;SDS011;60111;48.286;7.812;2022-07-15T13:23:39;13.88;;;3.02;;
72205;SDS011;60111;48.286;7.812;2022-07-15T13:26:12;6.17;;;2.33;;
72205;SDS011;60111;48.286;7.812;2022-07-15T13:28:45;6.00;;;2.27;;
72205;SDS011;60111;48.286;7.812;2022-07-15T13:31:18;2.57;;;1.77;;
72205;SDS011;60111;48.286;7.812;2022-07-15T13:33:50;4.45;;;2.25;;
72205;SDS011;60111;48.286;7.812;2022-07-15T13:36:23;6.08;;;2.55;;
72205;SDS011;60111;48.286;7.812;2022-07-15T13:38:56;5.22;;;2.50;;
72205;SDS011;60111;48.286;7.812;2022-07-15T13:41:29;3.98;;;2.20;;
72205;SDS011;60111;48.286;7.812;2022-07-15T13:44:01;6.50;;;2.37;;
72205;SDS011;60111;48.286;7.812;2022-07-15T13:46:34;2.62;;;1.90;;
72205;SDS011;60111;48.286;7.812;2022-07-15T13:49:07;6.97;;;2.40;;
72205;SDS011;60111;48.286;7.812;2022-07-15T13:51:39;5.83;;;2.25;;
72205;SDS011;60111;48.286;7.812;2022-07-15T13:54:12;5.55;;;2.00;;
72205;SDS011;60111;48.286;7.812;2022-07-15T13:56:44;5.30;;;2.23;;
72205;SDS011;60111;48.286;7.812;2022-07-15T13:59:17;3.17;;;2.10;;
72205;SDS011;60111;48.286;7.812;2022-07-15T14:01:50;5.05;;;2.30;;
72205;SDS011;60111;48.286;7.812;2022-07-15T14:04:23;3.47;;;2.42;;
72205;SDS011;60111;48.286;7.812;2022-07-15T14:06:56;4.72;;;2.27;;
72205;SDS011;60111;48.286;7.812;2022-07-15T14:09:28;4.97;;;1.97;;
72205;SDS011;60111;48.286;7.812;2022-07-15T14:12:01;3.15;;;2.20;;
72205;SDS011;60111;48.286;7.812;2022-07-15T14:14:34;3.33;;;1.87;;
72205;SDS011;60111;48.286;7.812;2022-07-15T14:17:07;4.85;;;2.02;;
72205;SDS011;60111;48.286;7.812;2022-07-15T14:19:39;5.05;;;2.50;;
72205;SDS011;60111;48.286;7.812;2022-07-15T14:22:12;3.42;;;2.10;;
72205;SDS011;60111;48.286;7.812;2022-07-15T14:24:45;4.83;;;1.90;;
72205;SDS011;60111;48.286;7.812;2022-07-15T14:27:17;2.20;;;2.00;;
72205;SDS011;60111;48.286;7.812;2022-07-15T14:29:50;6.03;;;1.98;;
72205;SDS011;60111;48.286;7.812;2022-07-15T14:32:24;4.60;;;2.00;;
72205;SDS011;60111;48.286;7.812;2022-07-15T14:34:56;6.03;;;2.02;;
72205;SDS011;60111;48.286;7.812;2022-07-15T14:37:29;5.00;;;2.05;;
72205;SDS011;60111;48.286;7.812;2022-07-15T14:40:03;4.00;;;2.33;;
72205;SDS011;60111;48.286;7.812;2022-07-15T14:42:37;3.70;;;2.25;;
72205;SDS011;60111;48.286;7.812;2022-07-15T14:45:10;3.60;;;2.00;;
72205;SDS011;60111;48.286;7.812;2022-07-15T14:47:43;8.13;;;2.33;;
72205;SDS011;60111;48.286;7.812;2022-07-15T14:50:15;4.27;;;2.30;;
72205;SDS011;60111;48.286;7.812;2022-07-15T14:52:48;4.60;;;1.98;;
72205;SDS011;60111;48.286;7.812;2022-07-15T14:55:21;3.60;;;1.90;;
72205;SDS011;60111;48.286;7.812;2022-07-15T14:57:54;4.58;;;1.90;;
72205;SDS011;60111;48.286;7.812;2022-07-15T15:00:26;5.80;;;1.77;;
72205;SDS011;60111;48.286;7.812;2022-07-15T15:02:59;2.65;;;1.67;;
72205;SDS011;60111;48.286;7.812;2022-07-15T15:05:31;5.15;;;1.80;;
72205;SDS011;60111;48.286;7.812;2022-07-15T15:08:04;6.85;;;2.10;;
72205;SDS011;60111;48.286;7.812;2022-07-15T15:10:37;7.73;;;2.30;;
72205;SDS011;60111;48.286;7.812;2022-07-15T15:13:09;3.52;;;1.77;;
72205;SDS011;60111;48.286;7.812;2022-07-15T15:15:42;3.37;;;1.75;;
72205;SDS011;60111;48.286;7.812;2022-07-15T15:18:15;5.50;;;1.90;;
72205;SDS011;60111;48.286;7.812;2022-07-15T15:20:47;5.78;;;1.80;;
72205;SDS011;60111;48.286;7.812;2022-07-15T15:23:20;4.23;;;2.10;;
72205;SDS011;60111;48.286;7.812;2022-07-15T15:25:53;4.40;;;1.65;;
72205;SDS011;60111;48.286;7.812;2022-07-15T15:28:44;3.83;;;1.65;;
72205;SDS011;60111;48.286;7.812;2022-07-15T15:31:17;3.47;;;1.90;;
72205;SDS011;60111;48.286;7.812;2022-07-15T15:33:49;3.60;;;1.77;;
72205;SDS011;60111;48.286;7.812;2022-07-15T15:36:22;5.15;;;1.80;;
72205;SDS011;60111;48.286;7.812;2022-07-15T15:38:55;3.85;;;1.77;;
72205;SDS011;60111;48.286;7.812;2022-07-15T15:41:27;7.40;;;2.00;;
72205;SDS011;60111;48.286;7.812;2022-07-15T15:44:00;3.83;;;2.10;;
72205;SDS011;60111;48.286;7.812;2022-07-15T15:46:33;5.65;;;1.90;;
72205;SDS011;60111;48.286;7.812;2022-07-15T15:49:05;3.60;;;1.70;;
72205;SDS011;60111;48.286;7.812;2022-07-15T15:51:38;4.00;;;2.07;;
72205;SDS011;60111;48.286;7.812;2022-07-15T15:54:11;3.98;;;1.82;;
72205;SDS011;60111;48.286;7.812;2022-07-15T15:56:43;6.30;;;2.10;;
72205;SDS011;60111;48.286;7.812;2022-07-15T15:59:16;3.97;;;2.13;;
72205;SDS011;60111;48.286;7.812;2022-07-15T16:01:49;4.77;;;1.77;;
72205;SDS011;60111;48.286;7.812;2022-07-15T16:04:21;3.42;;;2.00;;
72205;SDS011;60111;48.286;7.812;2022-07-15T16:06:54;7.95;;;2.10;;
72205;SDS011;60111;48.286;7.812;2022-07-15T16:09:27;3.07;;;1.73;;
72205;SDS011;60111;48.286;7.812;2022-07-15T16:11:59;4.37;;;1.92;;
72205;SDS011;60111;48.286;7.812;2022-07-15T16:14:32;4.20;;;1.98;;
72205;SDS011;60111;48.286;7.812;2022-07-15T16:17:05;5.55;;;1.95;;